Terminal Aerodrome Forecast
Issued by NWS Knoxville/Tri Cities, TN

Home | Current Version | Previous Version | Text Only | Print | Product List | Glossary On
Versions: 1 2 3 4 5 6 7 8 9 10 11 12 13 14 15
000
FTUS44 KMRX 231941 AAA
TAFTYS
TAF AMD
KTYS 231941Z 2320/2418 06011G20KT P6SM -SHRA FEW005 BKN070
      TEMPO 2320/2322 5SM -RA BR SCT010
     FM240000 06009KT P6SM VCSH SCT020 BKN050
     FM240700 06006KT P6SM SCT010 OVC035
     FM241400 23005KT P6SM FEW007 SCT015 BKN035=

USA.gov is the U.S. government's official web portal to all federal, state and local government web resources and services.